sensor_id;sensor_type;location;lat;lon;timestamp;temperature;humidity
16283;DHT22;8249;48.708;9.030;2023-07-31T00:00:23;13.50;99.90
16283;DHT22;8249;48.708;9.030;2023-07-31T00:02:51;13.50;99.90
16283;DHT22;8249;48.708;9.030;2023-07-31T00:05:18;13.50;99.90
16283;DHT22;8249;48.708;9.030;2023-07-31T00:07:45;13.40;99.90
16283;DHT22;8249;48.708;9.030;2023-07-31T00:10:12;13.40;99.90
16283;DHT22;8249;48.708;9.030;2023-07-31T00:12:41;13.40;99.90
16283;DHT22;8249;48.708;9.030;2023-07-31T00:15:09;13.30;99.90
16283;DHT22;8249;48.708;9.030;2023-07-31T00:17:36;13.30;99.90
16283;DHT22;8249;48.708;9.030;2023-07-31T00:20:04;13.30;99.90
16283;DHT22;8249;48.708;9.030;2023-07-31T00:22:31;13.20;99.90
16283;DHT22;8249;48.708;9.030;2023-07-31T00:24:58;13.20;99.90
16283;DHT22;8249;48.708;9.030;2023-07-31T00:27:25;13.20;99.90
16283;DHT22;8249;48.708;9.030;2023-07-31T00:29:53;13.20;99.90
16283;DHT22;8249;48.708;9.030;2023-07-31T00:32:21;13.10;99.90
16283;DHT22;8249;48.708;9.030;2023-07-31T00:34:47;13.10;99.90
16283;DHT22;8249;48.708;9.030;2023-07-31T00:37:14;13.10;99.90
16283;DHT22;8249;48.708;9.030;2023-07-31T00:39:42;13.10;99.90
16283;DHT22;8249;48.708;9.030;2023-07-31T00:42:08;13.10;99.90
16283;DHT22;8249;48.708;9.030;2023-07-31T00:44:35;13.00;99.90
16283;DHT22;8249;48.708;9.030;2023-07-31T00:47:04;13.00;99.90
16283;DHT22;8249;48.708;9.030;2023-07-31T00:49:31;13.00;99.90
16283;DHT22;8249;48.708;9.030;2023-07-31T00:51:59;12.90;99.90
16283;DHT22;8249;48.708;9.030;2023-07-31T00:54:26;12.90;99.90
16283;DHT22;8249;48.708;9.030;2023-07-31T00:56:53;12.90;99.90
16283;DHT22;8249;48.708;9.030;2023-07-31T00:59:21;12.80;99.90
16283;DHT22;8249;48.708;9.030;2023-07-31T01:01:48;12.80;99.90
16283;DHT22;8249;48.708;9.030;2023-07-31T01:04:17;12.90;99.90
16283;DHT22;8249;48.708;9.030;2023-07-31T01:06:48;12.90;99.90
16283;DHT22;8249;48.708;9.030;2023-07-31T01:09:35;13.00;99.90
16283;DHT22;8249;48.708;9.030;2023-07-31T01:12:04;13.00;99.90
16283;DHT22;8249;48.708;9.030;2023-07-31T01:14:33;13.00;99.90
16283;DHT22;8249;48.708;9.030;2023-07-31T01:17:00;13.00;99.90
16283;DHT22;8249;48.708;9.030;2023-07-31T01:19:28;12.90;99.90
16283;DHT22;8249;48.708;9.030;2023-07-31T01:22:16;12.90;99.90
16283;DHT22;8249;48.708;9.030;2023-07-31T01:24:55;12.80;99.90
16283;DHT22;8249;48.708;9.030;2023-07-31T01:27:29;12.80;99.90
16283;DHT22;8249;48.708;9.030;2023-07-31T01:30:02;12.80;99.90
16283;DHT22;8249;48.708;9.030;2023-07-31T01:32:36;12.80;99.90
16283;DHT22;8249;48.708;9.030;2023-07-31T01:35:06;12.70;99.90
16283;DHT22;8249;48.708;9.030;2023-07-31T01:37:34;12.70;99.90
16283;DHT22;8249;48.708;9.030;2023-07-31T01:40:01;12.70;99.90
16283;DHT22;8249;48.708;9.030;2023-07-31T01:42:29;12.60;99.90
16283;DHT22;8249;48.708;9.030;2023-07-31T01:44:56;12.70;99.90
16283;DHT22;8249;48.708;9.030;2023-07-31T01:47:23;12.70;99.90
16283;DHT22;8249;48.708;9.030;2023-07-31T01:49:51;12.70;99.90
16283;DHT22;8249;48.708;9.030;2023-07-31T01:52:18;12.70;99.90
16283;DHT22;8249;48.708;9.030;2023-07-31T01:54:44;12.70;99.90
16283;DHT22;8249;48.708;9.030;2023-07-31T01:57:11;12.60;99.90
16283;DHT22;8249;48.708;9.030;2023-07-31T01:59:40;12.70;99.90
16283;DHT22;8249;48.708;9.030;2023-07-31T02:02:07;12.60;99.90
16283;DHT22;8249;48.708;9.030;2023-07-31T02:04:34;12.60;99.90
16283;DHT22;8249;48.708;9.030;2023-07-31T02:07:02;12.60;99.90
16283;DHT22;8249;48.708;9.030;2023-07-31T02:09:29;12.70;99.90
16283;DHT22;8249;48.708;9.030;2023-07-31T02:11:56;12.70;99.90
16283;DHT22;8249;48.708;9.030;2023-07-31T02:17:40;12.80;99.90
16283;DHT22;8249;48.708;9.030;2023-07-31T02:20:08;12.70;99.90
16283;DHT22;8249;48.708;9.030;2023-07-31T02:22:35;12.70;99.90
16283;DHT22;8249;48.708;9.030;2023-07-31T02:25:02;12.60;99.90
16283;DHT22;8249;48.708;9.030;2023-07-31T02:27:29;12.60;99.90
16283;DHT22;8249;48.708;9.030;2023-07-31T02:29:56;12.70;99.90
16283;DHT22;8249;48.708;9.030;2023-07-31T02:32:24;12.70;99.90
16283;DHT22;8249;48.708;9.030;2023-07-31T02:34:53;12.80;99.90
16283;DHT22;8249;48.708;9.030;2023-07-31T02:37:20;12.90;99.90
16283;DHT22;8249;48.708;9.030;2023-07-31T02:39:47;12.90;99.90
16283;DHT22;8249;48.708;9.030;2023-07-31T02:42:14;12.90;99.90
16283;DHT22;8249;48.708;9.030;2023-07-31T02:44:41;12.90;99.90
16283;DHT22;8249;48.708;9.030;2023-07-31T02:47:08;12.90;99.90
16283;DHT22;8249;48.708;9.030;2023-07-31T02:49:35;12.80;99.90
16283;DHT22;8249;48.708;9.030;2023-07-31T02:52:04;12.80;99.90
16283;DHT22;8249;48.708;9.030;2023-07-31T02:54:31;12.80;99.90
16283;DHT22;8249;48.708;9.030;2023-07-31T02:56:58;12.70;99.90
16283;DHT22;8249;48.708;9.030;2023-07-31T02:59:25;12.70;99.90
16283;DHT22;8249;48.708;9.030;2023-07-31T03:01:51;12.90;99.90
16283;DHT22;8249;48.708;9.030;2023-07-31T03:04:18;13.10;99.90
16283;DHT22;8249;48.708;9.030;2023-07-31T03:06:45;13.40;99.90
16283;DHT22;8249;48.708;9.030;2023-07-31T03:09:13;13.50;99.90
16283;DHT22;8249;48.708;9.030;2023-07-31T03:11:40;13.60;99.90
16283;DHT22;8249;48.708;9.030;2023-07-31T03:14:07;13.60;99.90
16283;DHT22;8249;48.708;9.030;2023-07-31T03:16:34;13.80;99.90
16283;DHT22;8249;48.708;9.030;2023-07-31T03:19:01;13.80;99.90
16283;DHT22;8249;48.708;9.030;2023-07-31T03:21:28;13.80;99.90
16283;DHT22;8249;48.708;9.030;2023-07-31T03:23:54;13.80;99.90
16283;DHT22;8249;48.708;9.030;2023-07-31T03:26:23;13.90;99.90
16283;DHT22;8249;48.708;9.030;2023-07-31T03:28:50;13.90;99.90
16283;DHT22;8249;48.708;9.030;2023-07-31T03:31:17;14.00;99.90
16283;DHT22;8249;48.708;9.030;2023-07-31T03:33:44;14.00;99.90
16283;DHT22;8249;48.708;9.030;2023-07-31T03:36:11;14.10;99.90
16283;DHT22;8249;48.708;9.030;2023-07-31T03:38:38;14.10;99.90
16283;DHT22;8249;48.708;9.030;2023-07-31T03:41:07;14.10;99.90
16283;DHT22;8249;48.708;9.030;2023-07-31T03:43:35;14.10;99.90
16283;DHT22;8249;48.708;9.030;2023-07-31T03:46:02;14.10;99.90
16283;DHT22;8249;48.708;9.030;2023-07-31T03:48:29;14.20;99.90
16283;DHT22;8249;48.708;9.030;2023-07-31T03:50:56;14.20;99.90
16283;DHT22;8249;48.708;9.030;2023-07-31T03:53:23;14.20;99.90
16283;DHT22;8249;48.708;9.030;2023-07-31T03:55:50;14.30;99.90
16283;DHT22;8249;48.708;9.030;2023-07-31T03:58:16;14.30;99.90
16283;DHT22;8249;48.708;9.030;2023-07-31T04:00:45;14.30;99.90
16283;DHT22;8249;48.708;9.030;2023-07-31T04:03:12;14.40;99.90
16283;DHT22;8249;48.708;9.030;2023-07-31T04:05:39;14.40;99.90
16283;DHT22;8249;48.708;9.030;2023-07-31T04:08:06;14.40;99.90
16283;DHT22;8249;48.708;9.030;2023-07-31T04:10:33;14.40;99.90
16283;DHT22;8249;48.708;9.030;2023-07-31T04:13:00;14.40;99.90
16283;DHT22;8249;48.708;9.030;2023-07-31T04:15:27;14.40;99.90
16283;DHT22;8249;48.708;9.030;2023-07-31T04:17:56;14.40;99.90
16283;DHT22;8249;48.708;9.030;2023-07-31T04:20:22;14.40;99.90
16283;DHT22;8249;48.708;9.030;2023-07-31T04:22:49;14.40;99.90
16283;DHT22;8249;48.708;9.030;2023-07-31T04:25:16;14.40;99.90
16283;DHT22;8249;48.708;9.030;2023-07-31T04:27:44;14.40;99.90
16283;DHT22;8249;48.708;9.030;2023-07-31T04:30:10;14.40;99.90
16283;DHT22;8249;48.708;9.030;2023-07-31T04:32:37;14.50;99.90
16283;DHT22;8249;48.708;9.030;2023-07-31T04:35:06;14.60;99.90
16283;DHT22;8249;48.708;9.030;2023-07-31T04:37:33;14.60;99.90
16283;DHT22;8249;48.708;9.030;2023-07-31T04:40:00;14.60;99.90
16283;DHT22;8249;48.708;9.030;2023-07-31T04:42:27;14.70;99.90
16283;DHT22;8249;48.708;9.030;2023-07-31T04:44:54;14.70;99.90
16283;DHT22;8249;48.708;9.030;2023-07-31T04:47:21;14.80;99.90
16283;DHT22;8249;48.708;9.030;2023-07-31T04:49:48;14.80;99.90
16283;DHT22;8249;48.708;9.030;2023-07-31T04:52:16;14.90;99.90
16283;DHT22;8249;48.708;9.030;2023-07-31T04:54:43;14.90;99.90
16283;DHT22;8249;48.708;9.030;2023-07-31T04:57:10;15.00;99.90
16283;DHT22;8249;48.708;9.030;2023-07-31T04:59:37;15.00;99.90
16283;DHT22;8249;48.708;9.030;2023-07-31T05:02:04;15.10;99.90
16283;DHT22;8249;48.708;9.030;2023-07-31T05:04:31;15.10;99.90
16283;DHT22;8249;48.708;9.030;2023-07-31T05:06:58;15.10;99.90
16283;DHT22;8249;48.708;9.030;2023-07-31T05:09:26;15.20;99.90
16283;DHT22;8249;48.708;9.030;2023-07-31T05:11:53;15.20;99.90
16283;DHT22;8249;48.708;9.030;2023-07-31T05:14:20;15.20;99.90
16283;DHT22;8249;48.708;9.030;2023-07-31T05:16:47;15.30;99.90
16283;DHT22;8249;48.708;9.030;2023-07-31T05:19:14;15.30;99.90
16283;DHT22;8249;48.708;9.030;2023-07-31T05:21:41;15.30;99.90
16283;DHT22;8249;48.708;9.030;2023-07-31T05:24:08;15.40;99.90
16283;DHT22;8249;48.708;9.030;2023-07-31T05:26:36;15.40;99.90
16283;DHT22;8249;48.708;9.030;2023-07-31T05:29:03;15.40;99.90
16283;DHT22;8249;48.708;9.030;2023-07-31T05:31:30;15.50;99.90
16283;DHT22;8249;48.708;9.030;2023-07-31T05:33:58;15.50;99.90
16283;DHT22;8249;48.708;9.030;2023-07-31T05:36:24;15.60;99.90
16283;DHT22;8249;48.708;9.030;2023-07-31T05:38:51;15.60;99.90
16283;DHT22;8249;48.708;9.030;2023-07-31T05:41:18;15.70;99.90
16283;DHT22;8249;48.708;9.030;2023-07-31T05:43:46;15.70;99.90
16283;DHT22;8249;48.708;9.030;2023-07-31T05:46:13;15.80;99.90
16283;DHT22;8249;48.708;9.030;2023-07-31T05:48:40;15.90;99.90
16283;DHT22;8249;48.708;9.030;2023-07-31T05:51:07;16.00;99.90
16283;DHT22;8249;48.708;9.030;2023-07-31T05:53:34;16.10;99.90
16283;DHT22;8249;48.708;9.030;2023-07-31T05:56:06;16.20;99.90
16283;DHT22;8249;48.708;9.030;2023-07-31T05:58:33;16.20;99.90
16283;DHT22;8249;48.708;9.030;2023-07-31T06:01:01;16.30;99.90
16283;DHT22;8249;48.708;9.030;2023-07-31T06:03:28;16.40;99.90
16283;DHT22;8249;48.708;9.030;2023-07-31T06:05:56;16.50;99.90
16283;DHT22;8249;48.708;9.030;2023-07-31T06:08:23;16.50;99.90
16283;DHT22;8249;48.708;9.030;2023-07-31T06:10:49;16.50;99.90
16283;DHT22;8249;48.708;9.030;2023-07-31T06:13:16;16.50;99.90
16283;DHT22;8249;48.708;9.030;2023-07-31T06:15:43;16.50;99.90
16283;DHT22;8249;48.708;9.030;2023-07-31T06:18:11;16.50;99.90
16283;DHT22;8249;48.708;9.030;2023-07-31T06:20:38;16.60;99.90
16283;DHT22;8249;48.708;9.030;2023-07-31T06:23:06;16.60;99.90
16283;DHT22;8249;48.708;9.030;2023-07-31T06:25:33;16.60;99.90
16283;DHT22;8249;48.708;9.030;2023-07-31T06:28:00;16.70;99.90
16283;DHT22;8249;48.708;9.030;2023-07-31T06:30:27;16.80;99.90
16283;DHT22;8249;48.708;9.030;2023-07-31T06:32:53;16.90;99.90
16283;DHT22;8249;48.708;9.030;2023-07-31T06:35:22;16.90;99.90
16283;DHT22;8249;48.708;9.030;2023-07-31T06:37:49;17.10;99.90
16283;DHT22;8249;48.708;9.030;2023-07-31T06:40:16;17.30;99.90
16283;DHT22;8249;48.708;9.030;2023-07-31T06:42:44;17.40;99.90
16283;DHT22;8249;48.708;9.030;2023-07-31T06:45:11;17.50;99.90
16283;DHT22;8249;48.708;9.030;2023-07-31T06:47:38;17.60;99.90
16283;DHT22;8249;48.708;9.030;2023-07-31T06:50:06;17.80;99.90
16283;DHT22;8249;48.708;9.030;2023-07-31T06:52:35;18.00;99.90
16283;DHT22;8249;48.708;9.030;2023-07-31T06:55:02;17.90;99.90
16283;DHT22;8249;48.708;9.030;2023-07-31T06:57:30;18.00;99.90
16283;DHT22;8249;48.708;9.030;2023-07-31T06:59:57;17.90;99.90
16283;DHT22;8249;48.708;9.030;2023-07-31T07:02:24;18.00;99.90
16283;DHT22;8249;48.708;9.030;2023-07-31T07:04:50;18.00;99.90
16283;DHT22;8249;48.708;9.030;2023-07-31T07:07:18;18.20;99.90
16283;DHT22;8249;48.708;9.030;2023-07-31T07:09:46;18.40;99.90
16283;DHT22;8249;48.708;9.030;2023-07-31T07:12:13;18.50;99.90
16283;DHT22;8249;48.708;9.030;2023-07-31T07:14:40;18.40;99.90
16283;DHT22;8249;48.708;9.030;2023-07-31T07:17:07;18.40;99.90
16283;DHT22;8249;48.708;9.030;2023-07-31T07:19:33;18.50;99.90
16283;DHT22;8249;48.708;9.030;2023-07-31T07:22:00;18.60;99.90
16283;DHT22;8249;48.708;9.030;2023-07-31T07:24:27;18.60;99.90
16283;DHT22;8249;48.708;9.030;2023-07-31T07:26:56;18.70;99.90
16283;DHT22;8249;48.708;9.030;2023-07-31T07:29:23;18.70;99.90
16283;DHT22;8249;48.708;9.030;2023-07-31T07:31:49;18.70;99.90
16283;DHT22;8249;48.708;9.030;2023-07-31T07:34:16;18.70;99.90
16283;DHT22;8249;48.708;9.030;2023-07-31T07:36:43;18.70;99.90
16283;DHT22;8249;48.708;9.030;2023-07-31T07:39:11;18.70;99.90
16283;DHT22;8249;48.708;9.030;2023-07-31T07:41:37;18.80;99.90
16283;DHT22;8249;48.708;9.030;2023-07-31T07:44:06;18.80;99.90
16283;DHT22;8249;48.708;9.030;2023-07-31T07:46:33;18.90;99.90
16283;DHT22;8249;48.708;9.030;2023-07-31T07:49:00;18.90;99.90
16283;DHT22;8249;48.708;9.030;2023-07-31T07:51:27;19.00;99.90
16283;DHT22;8249;48.708;9.030;2023-07-31T07:53:55;19.30;99.90
16283;DHT22;8249;48.708;9.030;2023-07-31T07:56:23;19.30;99.90
16283;DHT22;8249;48.708;9.030;2023-07-31T07:58:50;19.50;99.90
16283;DHT22;8249;48.708;9.030;2023-07-31T08:01:18;19.60;99.90
16283;DHT22;8249;48.708;9.030;2023-07-31T08:03:46;19.70;99.90
16283;DHT22;8249;48.708;9.030;2023-07-31T08:06:13;19.70;99.90
16283;DHT22;8249;48.708;9.030;2023-07-31T08:08:40;19.90;99.90
16283;DHT22;8249;48.708;9.030;2023-07-31T08:11:07;19.80;99.90
16283;DHT22;8249;48.708;9.030;2023-07-31T08:13:34;19.90;99.90
16283;DHT22;8249;48.708;9.030;2023-07-31T08:16:02;20.10;99.90
16283;DHT22;8249;48.708;9.030;2023-07-31T08:18:31;20.10;99.90
16283;DHT22;8249;48.708;9.030;2023-07-31T08:20:58;20.00;99.90
16283;DHT22;8249;48.708;9.030;2023-07-31T08:23:24;20.10;99.90
16283;DHT22;8249;48.708;9.030;2023-07-31T08:25:51;20.40;99.90
16283;DHT22;8249;48.708;9.030;2023-07-31T08:28:18;20.40;99.90
16283;DHT22;8249;48.708;9.030;2023-07-31T08:30:45;20.50;99.90
16283;DHT22;8249;48.708;9.030;2023-07-31T08:33:12;21.00;99.90
16283;DHT22;8249;48.708;9.030;2023-07-31T08:35:40;21.00;99.90
16283;DHT22;8249;48.708;9.030;2023-07-31T08:38:07;21.00;99.90
16283;DHT22;8249;48.708;9.030;2023-07-31T08:40:36;21.20;99.90
16283;DHT22;8249;48.708;9.030;2023-07-31T08:43:03;21.40;99.90
16283;DHT22;8249;48.708;9.030;2023-07-31T08:45:31;21.30;99.90
16283;DHT22;8249;48.708;9.030;2023-07-31T08:47:59;21.00;99.90
16283;DHT22;8249;48.708;9.030;2023-07-31T08:50:26;20.80;99.90
16283;DHT22;8249;48.708;9.030;2023-07-31T08:52:55;20.50;99.90
16283;DHT22;8249;48.708;9.030;2023-07-31T08:55:22;20.50;99.90
16283;DHT22;8249;48.708;9.030;2023-07-31T08:57:51;20.30;99.90
16283;DHT22;8249;48.708;9.030;2023-07-31T09:00:20;20.10;99.90
16283;DHT22;8249;48.708;9.030;2023-07-31T09:02:55;20.00;99.90
16283;DHT22;8249;48.708;9.030;2023-07-31T09:05:23;20.00;99.90
16283;DHT22;8249;48.708;9.030;2023-07-31T09:07:54;20.00;99.90
16283;DHT22;8249;48.708;9.030;2023-07-31T09:10:22;20.00;99.90
16283;DHT22;8249;48.708;9.030;2023-07-31T09:12:50;20.10;99.90
16283;DHT22;8249;48.708;9.030;2023-07-31T09:15:18;20.20;99.90
16283;DHT22;8249;48.708;9.030;2023-07-31T09:17:45;20.30;99.90
16283;DHT22;8249;48.708;9.030;2023-07-31T09:20:17;20.70;99.90
16283;DHT22;8249;48.708;9.030;2023-07-31T09:22:45;20.90;99.90
16283;DHT22;8249;48.708;9.030;2023-07-31T09:25:17;21.10;99.90
16283;DHT22;8249;48.708;9.030;2023-07-31T09:27:49;21.10;99.90
16283;DHT22;8249;48.708;9.030;2023-07-31T09:30:16;21.10;99.90
16283;DHT22;8249;48.708;9.030;2023-07-31T09:32:45;20.80;99.90
16283;DHT22;8249;48.708;9.030;2023-07-31T09:35:18;20.60;99.90
16283;DHT22;8249;48.708;9.030;2023-07-31T09:37:49;20.40;99.90
16283;DHT22;8249;48.708;9.030;2023-07-31T09:40:30;20.50;99.90
16283;DHT22;8249;48.708;9.030;2023-07-31T09:42:58;20.70;99.90
16283;DHT22;8249;48.708;9.030;2023-07-31T09:45:26;20.80;99.90
16283;DHT22;8249;48.708;9.030;2023-07-31T09:47:53;21.10;99.90
16283;DHT22;8249;48.708;9.030;2023-07-31T09:50:21;21.60;99.90
16283;DHT22;8249;48.708;9.030;2023-07-31T09:52:49;22.00;99.90
16283;DHT22;8249;48.708;9.030;2023-07-31T09:55:16;22.00;99.90
16283;DHT22;8249;48.708;9.030;2023-07-31T09:57:45;21.70;99.90
16283;DHT22;8249;48.708;9.030;2023-07-31T10:00:14;21.70;99.90
16283;DHT22;8249;48.708;9.030;2023-07-31T10:02:44;22.30;99.90
16283;DHT22;8249;48.708;9.030;2023-07-31T10:05:13;22.80;99.90
16283;DHT22;8249;48.708;9.030;2023-07-31T10:07:42;22.70;99.90
16283;DHT22;8249;48.708;9.030;2023-07-31T10:10:10;22.80;99.90
16283;DHT22;8249;48.708;9.030;2023-07-31T10:12:37;23.30;99.90
16283;DHT22;8249;48.708;9.030;2023-07-31T10:15:07;23.10;99.90
16283;DHT22;8249;48.708;9.030;2023-07-31T10:17:35;23.10;99.90
16283;DHT22;8249;48.708;9.030;2023-07-31T10:20:03;23.00;99.90
16283;DHT22;8249;48.708;9.030;2023-07-31T10:22:31;23.20;99.90
16283;DHT22;8249;48.708;9.030;2023-07-31T10:24:59;23.20;99.90
16283;DHT22;8249;48.708;9.030;2023-07-31T10:27:27;23.90;99.90
16283;DHT22;8249;48.708;9.030;2023-07-31T10:29:55;24.40;99.90
16283;DHT22;8249;48.708;9.030;2023-07-31T10:32:25;24.30;99.90
16283;DHT22;8249;48.708;9.030;2023-07-31T10:34:52;24.30;99.90
16283;DHT22;8249;48.708;9.030;2023-07-31T10:37:27;24.40;99.90
16283;DHT22;8249;48.708;9.030;2023-07-31T10:39:59;24.80;99.90
16283;DHT22;8249;48.708;9.030;2023-07-31T10:42:31;24.40;99.90
16283;DHT22;8249;48.708;9.030;2023-07-31T10:44:59;24.00;99.90
16283;DHT22;8249;48.708;9.030;2023-07-31T10:47:28;24.30;99.90
16283;DHT22;8249;48.708;9.030;2023-07-31T10:50:13;24.50;99.90
16283;DHT22;8249;48.708;9.030;2023-07-31T10:52:40;24.60;99.90
16283;DHT22;8249;48.708;9.030;2023-07-31T10:55:14;24.70;99.90
16283;DHT22;8249;48.708;9.030;2023-07-31T10:57:44;25.00;99.90
16283;DHT22;8249;48.708;9.030;2023-07-31T11:00:19;25.20;99.90
16283;DHT22;8249;48.708;9.030;2023-07-31T11:02:58;24.50;99.90
16283;DHT22;8249;48.708;9.030;2023-07-31T11:05:48;24.00;99.90
16283;DHT22;8249;48.708;9.030;2023-07-31T11:08:17;23.60;99.90
16283;DHT22;8249;48.708;9.030;2023-07-31T11:10:45;23.40;99.90
16283;DHT22;8249;48.708;9.030;2023-07-31T11:13:13;22.90;99.90
16283;DHT22;8249;48.708;9.030;2023-07-31T11:15:40;22.80;99.90
16283;DHT22;8249;48.708;9.030;2023-07-31T11:18:09;22.60;99.90
16283;DHT22;8249;48.708;9.030;2023-07-31T11:20:37;22.40;99.90
16283;DHT22;8249;48.708;9.030;2023-07-31T11:23:07;22.30;99.90
16283;DHT22;8249;48.708;9.030;2023-07-31T11:25:34;22.10;99.90
16283;DHT22;8249;48.708;9.030;2023-07-31T11:28:05;22.00;99.90
16283;DHT22;8249;48.708;9.030;2023-07-31T11:30:32;22.00;99.90
16283;DHT22;8249;48.708;9.030;2023-07-31T11:33:01;22.00;99.90
16283;DHT22;8249;48.708;9.030;2023-07-31T11:35:31;21.90;99.90
16283;DHT22;8249;48.708;9.030;2023-07-31T11:37:58;21.90;99.90
16283;DHT22;8249;48.708;9.030;2023-07-31T11:40:26;21.90;99.90
16283;DHT22;8249;48.708;9.030;2023-07-31T11:42:56;22.00;99.90
16283;DHT22;8249;48.708;9.030;2023-07-31T11:45:25;21.80;99.90
16283;DHT22;8249;48.708;9.030;2023-07-31T11:47:54;21.80;99.90
16283;DHT22;8249;48.708;9.030;2023-07-31T11:50:22;21.80;99.90
16283;DHT22;8249;48.708;9.030;2023-07-31T11:52:55;21.60;99.90
16283;DHT22;8249;48.708;9.030;2023-07-31T11:55:24;21.50;99.90
16283;DHT22;8249;48.708;9.030;2023-07-31T11:57:55;21.40;99.90
16283;DHT22;8249;48.708;9.030;2023-07-31T12:00:23;21.20;99.90
16283;DHT22;8249;48.708;9.030;2023-07-31T12:02:51;21.20;99.90
16283;DHT22;8249;48.708;9.030;2023-07-31T12:05:18;21.20;99.90
16283;DHT22;8249;48.708;9.030;2023-07-31T12:07:47;21.20;99.90
16283;DHT22;8249;48.708;9.030;2023-07-31T12:10:26;21.30;99.90
16283;DHT22;8249;48.708;9.030;2023-07-31T12:13:01;21.30;99.90
16283;DHT22;8249;48.708;9.030;2023-07-31T12:15:32;21.40;99.90
16283;DHT22;8249;48.708;9.030;2023-07-31T12:17:59;21.30;99.90
16283;DHT22;8249;48.708;9.030;2023-07-31T12:20:26;21.20;99.90
16283;DHT22;8249;48.708;9.030;2023-07-31T12:22:56;21.20;99.90
16283;DHT22;8249;48.708;9.030;2023-07-31T12:25:28;21.20;99.90
16283;DHT22;8249;48.708;9.030;2023-07-31T12:27:56;21.20;99.90
16283;DHT22;8249;48.708;9.030;2023-07-31T12:30:29;21.10;99.90
16283;DHT22;8249;48.708;9.030;2023-07-31T12:32:56;21.10;99.90
16283;DHT22;8249;48.708;9.030;2023-07-31T12:35:23;21.10;99.90
16283;DHT22;8249;48.708;9.030;2023-07-31T12:37:50;21.00;99.90
16283;DHT22;8249;48.708;9.030;2023-07-31T12:40:17;21.20;99.90
16283;DHT22;8249;48.708;9.030;2023-07-31T12:42:45;21.30;99.90
16283;DHT22;8249;48.708;9.030;2023-07-31T12:45:13;21.40;99.90
16283;DHT22;8249;48.708;9.030;2023-07-31T12:47:40;21.60;99.90
16283;DHT22;8249;48.708;9.030;2023-07-31T12:50:08;21.80;99.90
16283;DHT22;8249;48.708;9.030;2023-07-31T12:52:35;22.20;99.90
16283;DHT22;8249;48.708;9.030;2023-07-31T12:55:02;22.50;99.90
16283;DHT22;8249;48.708;9.030;2023-07-31T12:57:30;22.70;99.90
16283;DHT22;8249;48.708;9.030;2023-07-31T12:59:58;22.80;99.90
16283;DHT22;8249;48.708;9.030;2023-07-31T13:02:25;22.90;99.90
16283;DHT22;8249;48.708;9.030;2023-07-31T13:04:53;23.20;99.90
16283;DHT22;8249;48.708;9.030;2023-07-31T13:07:22;23.70;99.90
16283;DHT22;8249;48.708;9.030;2023-07-31T13:09:49;23.70;99.90
16283;DHT22;8249;48.708;9.030;2023-07-31T13:12:16;23.50;99.90
16283;DHT22;8249;48.708;9.030;2023-07-31T13:14:42;23.40;99.90
16283;DHT22;8249;48.708;9.030;2023-07-31T13:17:11;23.20;99.90
16283;DHT22;8249;48.708;9.030;2023-07-31T13:19:37;23.00;99.90
16283;DHT22;8249;48.708;9.030;2023-07-31T13:22:04;22.80;99.90
16283;DHT22;8249;48.708;9.030;2023-07-31T13:24:31;22.70;99.90
16283;DHT22;8249;48.708;9.030;2023-07-31T13:26:58;22.70;99.90
16283;DHT22;8249;48.708;9.030;2023-07-31T13:29:25;22.80;99.90
16283;DHT22;8249;48.708;9.030;2023-07-31T13:31:53;22.70;99.90
16283;DHT22;8249;48.708;9.030;2023-07-31T13:34:21;22.60;99.90
16283;DHT22;8249;48.708;9.030;2023-07-31T13:36:48;22.60;99.90
16283;DHT22;8249;48.708;9.030;2023-07-31T13:39:15;22.60;99.90
16283;DHT22;8249;48.708;9.030;2023-07-31T13:41:42;22.60;99.90
16283;DHT22;8249;48.708;9.030;2023-07-31T13:44:09;22.70;99.90
16283;DHT22;8249;48.708;9.030;2023-07-31T13:46:35;22.70;99.90
16283;DHT22;8249;48.708;9.030;2023-07-31T13:49:02;22.60;99.90
16283;DHT22;8249;48.708;9.030;2023-07-31T13:51:31;22.50;99.90
16283;DHT22;8249;48.708;9.030;2023-07-31T13:53:58;22.50;99.90
16283;DHT22;8249;48.708;9.030;2023-07-31T13:56:24;22.40;99.90
16283;DHT22;8249;48.708;9.030;2023-07-31T13:58:51;22.40;99.90
16283;DHT22;8249;48.708;9.030;2023-07-31T14:01:18;22.50;99.90
16283;DHT22;8249;48.708;9.030;2023-07-31T14:03:45;22.40;99.90
16283;DHT22;8249;48.708;9.030;2023-07-31T14:06:12;22.50;99.90
16283;DHT22;8249;48.708;9.030;2023-07-31T14:08:40;22.50;99.90
16283;DHT22;8249;48.708;9.030;2023-07-31T14:11:07;22.40;99.90
16283;DHT22;8249;48.708;9.030;2023-07-31T14:13:34;22.30;99.90
16283;DHT22;8249;48.708;9.030;2023-07-31T14:16:01;22.10;99.90
16283;DHT22;8249;48.708;9.030;2023-07-31T14:18:28;22.10;99.90
16283;DHT22;8249;48.708;9.030;2023-07-31T14:20:55;22.00;99.90
16283;DHT22;8249;48.708;9.030;2023-07-31T14:23:22;22.00;99.90
16283;DHT22;8249;48.708;9.030;2023-07-31T14:25:50;22.00;99.90
16283;DHT22;8249;48.708;9.030;2023-07-31T14:28:17;22.00;99.90
16283;DHT22;8249;48.708;9.030;2023-07-31T14:30:44;22.10;99.90
16283;DHT22;8249;48.708;9.030;2023-07-31T14:33:11;22.10;99.90
16283;DHT22;8249;48.708;9.030;2023-07-31T14:35:38;22.20;99.90
16283;DHT22;8249;48.708;9.030;2023-07-31T14:38:05;22.30;99.90
16283;DHT22;8249;48.708;9.030;2023-07-31T14:40:32;22.20;99.90
16283;DHT22;8249;48.708;9.030;2023-07-31T14:43:00;22.20;99.90
16283;DHT22;8249;48.708;9.030;2023-07-31T14:45:27;22.30;99.90
16283;DHT22;8249;48.708;9.030;2023-07-31T14:47:54;22.40;99.90
16283;DHT22;8249;48.708;9.030;2023-07-31T14:50:21;22.50;99.90
16283;DHT22;8249;48.708;9.030;2023-07-31T14:52:49;22.50;99.90
16283;DHT22;8249;48.708;9.030;2023-07-31T14:55:15;22.50;99.90
16283;DHT22;8249;48.708;9.030;2023-07-31T14:57:42;22.40;99.90
16283;DHT22;8249;48.708;9.030;2023-07-31T15:00:12;22.50;99.90
16283;DHT22;8249;48.708;9.030;2023-07-31T15:02:39;22.50;99.90
16283;DHT22;8249;48.708;9.030;2023-07-31T15:05:07;22.50;99.90
16283;DHT22;8249;48.708;9.030;2023-07-31T15:07:34;22.40;99.90
16283;DHT22;8249;48.708;9.030;2023-07-31T15:10:02;22.30;99.90
16283;DHT22;8249;48.708;9.030;2023-07-31T15:12:29;22.20;99.90
16283;DHT22;8249;48.708;9.030;2023-07-31T15:14:56;22.10;99.90
16283;DHT22;8249;48.708;9.030;2023-07-31T15:17:24;22.10;99.90
16283;DHT22;8249;48.708;9.030;2023-07-31T15:19:51;22.20;99.90
16283;DHT22;8249;48.708;9.030;2023-07-31T15:22:18;22.20;99.90
16283;DHT22;8249;48.708;9.030;2023-07-31T15:24:45;22.30;99.90
16283;DHT22;8249;48.708;9.030;2023-07-31T15:27:14;22.40;99.90
16283;DHT22;8249;48.708;9.030;2023-07-31T15:29:41;22.40;99.90
16283;DHT22;8249;48.708;9.030;2023-07-31T15:32:08;22.50;99.90
16283;DHT22;8249;48.708;9.030;2023-07-31T15:34:37;22.70;99.90
16283;DHT22;8249;48.708;9.030;2023-07-31T15:37:04;22.70;99.90
16283;DHT22;8249;48.708;9.030;2023-07-31T15:39:31;22.70;99.90
16283;DHT22;8249;48.708;9.030;2023-07-31T15:41:58;22.80;99.90
16283;DHT22;8249;48.708;9.030;2023-07-31T15:44:25;22.80;99.90
16283;DHT22;8249;48.708;9.030;2023-07-31T15:46:52;23.00;99.90
16283;DHT22;8249;48.708;9.030;2023-07-31T15:49:19;22.90;99.90
16283;DHT22;8249;48.708;9.030;2023-07-31T15:51:47;22.80;99.90